Time;durP1;ratioP1;P1;durP2;ratioP2;P2;SDS_P1;SDS_P2;PMS_P1;PMS_P2;Temp;Humidity;BMP_temperature;BMP_pressure;BME280_temperature;BME280_humidity;BME280_pressure;Samples;Min_cycle;Max_cycle;Signal;HPM_P1;HPM_P2
2022/05/25 00:00:37;;;;;;;9.68;6.43;;;;;;;;;;5092306;28;20496;-73
2022/05/25 00:03:04;;;;;;;9.90;6.95;;;;;;;;;;5103094;28;20047;-73
2022/05/25 00:05:30;;;;;;;11.27;7.72;;;;;;;;;;5093610;28;20515;-73
2022/05/25 00:07:58;;;;;;;11.18;7.13;;;;;;;;;;5096636;28;20476;-73
2022/05/25 00:10:24;;;;;;;10.98;6.70;;;;;;;;;;5101185;28;20280;-73
2022/05/25 00:12:50;;;;;;;10.25;7.25;;;;;;;;;;5090319;28;20040;-73
2022/05/25 00:15:17;;;;;;;11.48;8.07;;;;;;;;;;5094874;28;20115;-74
2022/05/25 00:17:43;;;;;;;15.25;7.53;;;;;;;;;;5092839;28;20094;-73
2022/05/25 00:20:10;;;;;;;11.50;7.43;;;;;;;;;;5077755;28;20492;-73
2022/05/25 00:22:46;;;;;;;10.82;7.63;;;;;;;;;;5094911;28;20044;-73
2022/05/25 00:25:15;;;;;;;12.32;8.15;;;;;;;;;;5103644;28;20055;-73
2022/05/25 00:27:42;;;;;;;10.52;6.38;;;;;;;;;;5101315;28;20039;-73
2022/05/25 00:30:08;;;;;;;13.65;7.85;;;;;;;;;;5095498;28;20050;-73
2022/05/25 00:32:34;;;;;;;10.82;8.10;;;;;;;;;;5092991;28;20043;-73
2022/05/25 00:35:01;;;;;;;10.77;8.05;;;;;;;;;;5104165;28;20032;-73
2022/05/25 00:37:27;;;;;;;11.98;7.50;;;;;;;;;;5100418;28;20092;-73
2022/05/25 00:39:53;;;;;;;10.95;7.75;;;;;;;;;;5095683;28;20046;-73
2022/05/25 00:42:20;;;;;;;10.00;7.25;;;;;;;;;;5089538;28;20051;-74
2022/05/25 00:44:47;;;;;;;10.77;7.80;;;;;;;;;;5096070;28;20373;-73
2022/05/25 00:47:15;;;;;;;9.35;7.05;;;;;;;;;;5100606;28;20492;-73
2022/05/25 00:49:42;;;;;;;13.32;8.63;;;;;;;;;;5104477;28;20646;-73
2022/05/25 00:52:10;;;;;;;11.52;7.45;;;;;;;;;;5093588;28;20064;-73
2022/05/25 00:54:41;;;;;;;9.80;7.43;;;;;;;;;;5104044;28;20100;-73
2022/05/25 00:57:15;;;;;;;11.35;8.10;;;;;;;;;;5083253;28;20066;-73
2022/05/25 01:00:04;;;;;;;10.77;7.60;;;;;;;;;;5094317;28;20059;-73
2022/05/25 01:02:31;;;;;;;11.10;7.78;;;;;;;;;;5076530;28;20561;-73
2022/05/25 01:04:57;;;;;;;12.10;8.65;;;;;;;;;;5082659;28;20079;-73
2022/05/25 01:07:24;;;;;;;12.77;8.65;;;;;;;;;;5103726;28;20046;-73
2022/05/25 01:09:59;;;;;;;17.08;9.45;;;;;;;;;;5093523;28;20522;-73
2022/05/25 01:12:26;;;;;;;12.55;9.60;;;;;;;;;;5102636;28;20089;-73
2022/05/25 01:14:59;;;;;;;13.38;10.35;;;;;;;;;;5100375;28;20036;-73
2022/05/25 01:17:44;;;;;;;13.88;10.23;;;;;;;;;;5093941;28;20400;-73
2022/05/25 01:20:22;;;;;;;12.65;9.18;;;;;;;;;;5080980;28;20067;-73
2022/05/25 01:22:52;;;;;;;15.27;10.10;;;;;;;;;;5098004;28;20592;-73
2022/05/25 01:25:36;;;;;;;11.77;9.23;;;;;;;;;;5105441;28;20154;-73
2022/05/25 01:28:13;;;;;;;12.38;9.35;;;;;;;;;;5074957;28;20109;-73
2022/05/25 01:30:40;;;;;;;11.73;9.18;;;;;;;;;;5100736;28;20605;-73
2022/05/25 01:33:13;;;;;;;12.77;9.45;;;;;;;;;;5092867;28;20044;-73
2022/05/25 01:35:58;;;;;;;13.60;10.18;;;;;;;;;;5076156;28;20104;-73
2022/05/25 01:38:26;;;;;;;15.07;11.20;;;;;;;;;;5082887;28;20039;-73
2022/05/25 01:40:59;;;;;;;15.40;9.50;;;;;;;;;;5094314;28;20090;-73
2022/05/25 01:43:29;;;;;;;13.40;10.00;;;;;;;;;;5105548;28;20040;-73
2022/05/25 01:46:03;;;;;;;13.95;9.88;;;;;;;;;;5096241;28;20036;-73
2022/05/25 01:48:30;;;;;;;13.73;10.98;;;;;;;;;;5096366;28;20051;-73
2022/05/25 01:51:01;;;;;;;14.18;11.52;;;;;;;;;;5074405;28;20036;-73
2022/05/25 01:53:29;;;;;;;15.57;11.65;;;;;;;;;;5104228;28;20555;-73
2022/05/25 01:55:57;;;;;;;15.07;11.88;;;;;;;;;;5080689;28;20040;-73
2022/05/25 01:58:25;;;;;;;13.80;11.27;;;;;;;;;;5079457;28;20051;-73
2022/05/25 02:00:52;;;;;;;18.10;12.55;;;;;;;;;;5104938;28;20085;-73
2022/05/25 02:06:23;;;;;;;15.65;12.43;;;;;;;;;;5096521;28;20043;-73
2022/05/25 02:08:49;;;;;;;18.15;12.35;;;;;;;;;;5092159;28;20118;-73
2022/05/25 02:11:30;;;;;;;17.15;12.65;;;;;;;;;;5103255;28;20052;-73
2022/05/25 02:14:14;;;;;;;16.52;12.18;;;;;;;;;;5099906;28;20040;-73
2022/05/25 02:16:47;;;;;;;17.17;13.45;;;;;;;;;;5092223;28;20101;-73
2022/05/25 02:19:22;;;;;;;16.58;12.65;;;;;;;;;;5092833;28;20123;-73
2022/05/25 02:21:55;;;;;;;18.98;13.15;;;;;;;;;;5091242;28;20263;-73
2022/05/25 02:24:21;;;;;;;17.30;12.57;;;;;;;;;;5092199;28;20040;-74
2022/05/25 02:26:55;;;;;;;18.50;12.60;;;;;;;;;;5075397;28;20086;-73
2022/05/25 02:29:34;;;;;;;16.17;12.32;;;;;;;;;;5099242;28;20042;-73
2022/05/25 02:32:05;;;;;;;16.65;12.85;;;;;;;;;;5102983;28;20035;-73
2022/05/25 02:34:33;;;;;;;13.00;10.55;;;;;;;;;;5091460;28;20093;-73
2022/05/25 02:36:59;;;;;;;15.07;10.77;;;;;;;;;;5091136;28;20106;-73
2022/05/25 02:39:26;;;;;;;15.52;11.70;;;;;;;;;;5089389;28;20063;-73
2022/05/25 02:41:55;;;;;;;15.88;11.65;;;;;;;;;;5092977;28;20059;-73
2022/05/25 02:44:21;;;;;;;15.00;11.82;;;;;;;;;;5104061;28;20081;-73
2022/05/25 02:46:48;;;;;;;15.30;11.43;;;;;;;;;;5088615;28;20047;-72
2022/05/25 02:49:15;;;;;;;16.13;12.18;;;;;;;;;;5098852;28;20506;-73
2022/05/25 02:51:41;;;;;;;15.25;12.02;;;;;;;;;;5087578;28;20044;-73
2022/05/25 02:54:08;;;;;;;17.80;12.05;;;;;;;;;;5088093;28;20036;-73
2022/05/25 02:56:34;;;;;;;17.42;12.32;;;;;;;;;;5101734;28;20040;-73
2022/05/25 02:59:00;;;;;;;16.30;12.50;;;;;;;;;;5097722;28;20066;-73
2022/05/25 03:01:27;;;;;;;18.48;13.68;;;;;;;;;;5093510;28;20046;-73
2022/05/25 03:03:54;;;;;;;18.13;13.95;;;;;;;;;;5103938;28;20044;-73
2022/05/25 03:06:20;;;;;;;18.98;14.25;;;;;;;;;;5092941;28;20043;-73
2022/05/25 03:08:46;;;;;;;19.75;14.90;;;;;;;;;;5098021;28;20040;-73
2022/05/25 03:11:13;;;;;;;21.70;14.20;;;;;;;;;;5101715;28;20043;-73
2022/05/25 03:13:39;;;;;;;20.95;15.52;;;;;;;;;;5091074;28;20036;-73
2022/05/25 03:16:12;;;;;;;23.60;14.95;;;;;;;;;;5102762;28;20055;-73
2022/05/25 03:18:39;;;;;;;18.52;14.50;;;;;;;;;;5097576;28;20092;-73
2022/05/25 03:21:05;;;;;;;18.77;14.73;;;;;;;;;;5077487;28;20044;-73
2022/05/25 03:23:31;;;;;;;19.67;14.95;;;;;;;;;;5103911;28;20047;-73
2022/05/25 03:26:06;;;;;;;20.85;15.07;;;;;;;;;;5092389;28;20051;-73
2022/05/25 03:28:32;;;;;;;18.02;14.27;;;;;;;;;;5097244;28;20559;-73
2022/05/25 03:30:59;;;;;;;19.85;15.70;;;;;;;;;;5101928;28;20376;-72
2022/05/25 03:33:25;;;;;;;18.95;13.82;;;;;;;;;;5091095;28;20442;-73
2022/05/25 03:35:51;;;;;;;23.63;15.73;;;;;;;;;;5101236;28;20044;-73
2022/05/25 03:38:17;;;;;;;19.45;15.35;;;;;;;;;;5097199;28;20059;-73
2022/05/25 03:40:44;;;;;;;21.20;14.73;;;;;;;;;;5093562;28;20048;-73
2022/05/25 03:43:11;;;;;;;17.30;12.30;;;;;;;;;;5103496;28;20236;-73
2022/05/25 03:45:38;;;;;;;17.58;13.10;;;;;;;;;;5088580;28;20242;-72
2022/05/25 03:48:07;;;;;;;22.23;17.85;;;;;;;;;;5097692;28;20055;-73
2022/05/25 03:50:37;;;;;;;22.25;17.20;;;;;;;;;;5100516;28;20214;-72
2022/05/25 03:53:03;;;;;;;22.08;16.05;;;;;;;;;;5090757;28;20039;-72
2022/05/25 03:55:29;;;;;;;21.98;17.20;;;;;;;;;;5103433;28;20039;-72
2022/05/25 03:57:55;;;;;;;23.58;16.55;;;;;;;;;;5083460;28;20036;-72
2022/05/25 04:00:22;;;;;;;23.95;16.40;;;;;;;;;;5097779;28;20063;-72
2022/05/25 04:02:48;;;;;;;24.00;15.50;;;;;;;;;;5107414;28;20096;-73
2022/05/25 04:05:14;;;;;;;20.55;15.95;;;;;;;;;;5079060;28;20130;-73
2022/05/25 04:07:42;;;;;;;20.85;16.63;;;;;;;;;;5106044;28;20050;-73
2022/05/25 04:10:12;;;;;;;23.50;15.70;;;;;;;;;;5097960;28;20032;-73
2022/05/25 04:12:39;;;;;;;19.63;14.75;;;;;;;;;;5107071;28;20043;-73
2022/05/25 04:15:05;;;;;;;25.52;16.23;;;;;;;;;;5097414;28;20040;-73
2022/05/25 04:17:35;;;;;;;24.52;16.55;;;;;;;;;;5112724;28;20096;-72
2022/05/25 04:20:02;;;;;;;21.65;16.10;;;;;;;;;;5099022;28;20039;-73
2022/05/25 04:22:29;;;;;;;21.30;16.75;;;;;;;;;;5108897;28;20055;-72
2022/05/25 04:24:56;;;;;;;21.50;16.02;;;;;;;;;;5097067;28;20082;-73
2022/05/25 04:27:22;;;;;;;21.05;16.40;;;;;;;;;;5099588;28;20123;-73
2022/05/25 04:29:48;;;;;;;18.50;15.63;;;;;;;;;;5093821;28;20403;-72
2022/05/25 04:32:15;;;;;;;19.05;14.52;;;;;;;;;;5108435;28;20070;-72
2022/05/25 04:34:41;;;;;;;18.98;14.00;;;;;;;;;;5092077;28;20131;-72
2022/05/25 04:39:52;;;;;;;;;;;;;;;;;;5097197;28;20048;-72
2022/05/25 04:42:18;;;;;;;21.73;16.20;;;;;;;;;;5073947;28;19923;-73
2022/05/25 04:44:45;;;;;;;22.98;16.98;;;;;;;;;;5096578;28;20044;-72
2022/05/25 04:47:12;;;;;;;22.52;16.63;;;;;;;;;;5106809;28;20036;-72
2022/05/25 04:49:42;;;;;;;24.10;16.65;;;;;;;;;;5090589;28;20070;-72
2022/05/25 04:52:08;;;;;;;21.02;15.27;;;;;;;;;;5088926;28;20032;-73
2022/05/25 04:54:34;;;;;;;20.40;15.98;;;;;;;;;;5104749;28;20068;-72
2022/05/25 04:59:46;;;;;;;23.65;18.08;;;;;;;;;;5095085;28;20048;-72
2022/05/25 05:02:13;;;;;;;21.85;17.25;;;;;;;;;;5111703;28;20047;-73
2022/05/25 05:04:39;;;;;;;23.73;17.55;;;;;;;;;;5110085;28;20039;-72
2022/05/25 05:07:05;;;;;;;22.15;15.98;;;;;;;;;;5097638;28;20040;-72
2022/05/25 05:09:35;;;;;;;23.67;17.55;;;;;;;;;;5097643;28;20092;-72
2022/05/25 05:12:01;;;;;;;23.85;17.30;;;;;;;;;;5083967;28;20035;-73
2022/05/25 05:14:28;;;;;;;20.90;15.73;;;;;;;;;;5099735;28;20035;-72
2022/05/25 05:16:55;;;;;;;21.50;15.82;;;;;;;;;;5070093;28;20068;-72
2022/05/25 05:19:21;;;;;;;22.17;16.17;;;;;;;;;;5086287;28;20578;-72
2022/05/25 05:21:59;;;;;;;25.50;16.73;;;;;;;;;;5086213;28;20120;-72
2022/05/25 05:24:29;;;;;;;22.13;17.23;;;;;;;;;;5088869;28;20040;-72
2022/05/25 05:26:55;;;;;;;22.30;16.60;;;;;;;;;;5080355;28;20036;-72
2022/05/25 05:29:24;;;;;;;23.88;16.77;;;;;;;;;;5100297;28;20036;-71
2022/05/25 05:31:50;;;;;;;21.35;16.05;;;;;;;;;;5096404;28;20112;-72
2022/05/25 05:34:17;;;;;;;24.52;16.90;;;;;;;;;;5097873;28;20040;-72
2022/05/25 05:36:46;;;;;;;23.13;15.82;;;;;;;;;;5085998;28;20056;-72
2022/05/25 05:39:13;;;;;;;21.30;16.55;;;;;;;;;;5087034;28;20526;-72
2022/05/25 05:42:09;;;;;;;21.45;17.17;;;;;;;;;;5090897;28;20487;-72
2022/05/25 05:44:37;;;;;;;18.40;14.82;;;;;;;;;;5082276;28;20051;-71
2022/05/25 05:47:06;;;;;;;19.30;15.25;;;;;;;;;;5089120;28;20048;-72
2022/05/25 05:49:32;;;;;;;19.05;15.60;;;;;;;;;;5087832;28;20068;-72
2022/05/25 05:52:00;;;;;;;23.35;17.73;;;;;;;;;;5087419;28;20043;-72
2022/05/25 05:54:26;;;;;;;20.50;15.45;;;;;;;;;;5084637;28;20075;-72
2022/05/25 05:56:52;;;;;;;21.10;16.20;;;;;;;;;;5105092;28;20398;-72
2022/05/25 05:59:18;;;;;;;22.48;16.45;;;;;;;;;;5088736;28;20046;-72
2022/05/25 06:01:45;;;;;;;25.65;16.48;;;;;;;;;;5098057;28;20046;-72
2022/05/25 06:04:11;;;;;;;21.88;16.38;;;;;;;;;;5075119;28;20507;-72
2022/05/25 06:06:38;;;;;;;26.65;17.65;;;;;;;;;;5076312;28;20097;-72
2022/05/25 06:09:05;;;;;;;21.63;16.30;;;;;;;;;;5079108;28;20029;-72
2022/05/25 06:11:32;;;;;;;24.90;16.52;;;;;;;;;;5096394;28;20031;-72
2022/05/25 06:13:59;;;;;;;20.10;14.60;;;;;;;;;;5095853;28;20058;-73
2022/05/25 06:19:33;;;;;;;22.50;15.10;;;;;;;;;;5067821;28;20071;-73
2022/05/25 06:22:01;;;;;;;21.63;16.58;;;;;;;;;;5095381;28;20047;-72
2022/05/25 06:24:28;;;;;;;20.80;15.15;;;;;;;;;;5092273;28;20040;-73
2022/05/25 06:26:54;;;;;;;19.60;14.40;;;;;;;;;;5102968;28;20499;-73
2022/05/25 06:29:21;;;;;;;19.10;14.13;;;;;;;;;;5097246;28;20039;-72
2022/05/25 06:31:47;;;;;;;18.63;14.40;;;;;;;;;;5095249;28;20476;-72
2022/05/25 06:34:14;;;;;;;20.05;14.75;;;;;;;;;;5087429;28;20143;-73
2022/05/25 06:36:41;;;;;;;20.58;14.38;;;;;;;;;;5069382;28;20058;-72
2022/05/25 06:39:08;;;;;;;21.75;14.20;;;;;;;;;;5097172;28;20498;-73
2022/05/25 06:41:34;;;;;;;22.10;13.60;;;;;;;;;;5095328;28;20320;-73
2022/05/25 06:44:01;;;;;;;18.60;13.70;;;;;;;;;;5104295;28;20096;-72
2022/05/25 06:46:27;;;;;;;19.55;12.70;;;;;;;;;;5091990;28;20095;-73
2022/05/25 06:48:54;;;;;;;18.02;12.77;;;;;;;;;;5099330;28;20040;-72
2022/05/25 06:51:25;;;;;;;17.52;13.40;;;;;;;;;;5100194;28;20039;-73
2022/05/25 06:53:51;;;;;;;18.20;12.55;;;;;;;;;;5074568;28;20044;-73
2022/05/25 06:56:18;;;;;;;15.05;11.45;;;;;;;;;;5103600;28;20036;-73
2022/05/25 06:58:44;;;;;;;17.10;10.98;;;;;;;;;;5096276;28;20773;-73
2022/05/25 07:01:10;;;;;;;20.25;11.82;;;;;;;;;;5095390;28;20414;-72
2022/05/25 07:03:38;;;;;;;15.15;11.00;;;;;;;;;;5104048;28;20043;-73
2022/05/25 07:06:05;;;;;;;15.80;10.98;;;;;;;;;;5075353;28;20040;-73
2022/05/25 07:08:31;;;;;;;15.18;10.43;;;;;;;;;;5099653;28;20529;-73
2022/05/25 07:10:57;;;;;;;16.65;9.95;;;;;;;;;;5099677;28;20506;-73
2022/05/25 07:13:24;;;;;;;13.20;9.48;;;;;;;;;;5091585;28;20032;-73
2022/05/25 07:15:54;;;;;;;13.05;8.95;;;;;;;;;;5086715;28;20123;-73
2022/05/25 07:18:20;;;;;;;15.23;9.20;;;;;;;;;;5095402;28;20071;-73
2022/05/25 07:20:47;;;;;;;14.02;9.70;;;;;;;;;;5095763;28;20119;-72
2022/05/25 07:23:13;;;;;;;12.55;9.38;;;;;;;;;;5103255;28;20390;-73
2022/05/25 07:25:39;;;;;;;15.93;9.38;;;;;;;;;;5091023;28;20479;-72
2022/05/25 07:28:05;;;;;;;12.32;8.80;;;;;;;;;;5101616;28;20471;-72
2022/05/25 07:30:31;;;;;;;13.98;9.52;;;;;;;;;;5100038;28;20063;-72
2022/05/25 07:32:58;;;;;;;11.57;8.15;;;;;;;;;;5079848;28;20395;-72
2022/05/25 07:35:24;;;;;;;13.10;8.35;;;;;;;;;;5108083;28;20115;-72
2022/05/25 07:37:52;;;;;;;17.00;7.90;;;;;;;;;;5080826;28;20074;-72
2022/05/25 07:40:39;;;;;;;13.70;8.15;;;;;;;;;;5084045;28;20075;-73
2022/05/25 07:43:08;;;;;;;12.57;8.07;;;;;;;;;;5090606;28;20044;-73
2022/05/25 07:45:35;;;;;;;15.38;8.75;;;;;;;;;;5079961;28;20040;-73
2022/05/25 07:48:02;;;;;;;12.77;8.82;;;;;;;;;;5101611;28;20559;-73
2022/05/25 07:50:28;;;;;;;14.02;8.93;;;;;;;;;;5091185;28;20032;-73
2022/05/25 07:52:56;;;;;;;13.07;7.80;;;;;;;;;;5092539;28;20067;-73
2022/05/25 07:55:22;;;;;;;11.95;7.35;;;;;;;;;;5106525;28;20403;-73
2022/05/25 07:57:48;;;;;;;12.30;6.97;;;;;;;;;;5099987;28;20043;-73
2022/05/25 08:00:16;;;;;;;11.63;7.20;;;;;;;;;;5098039;28;20123;-74
2022/05/25 08:05:44;;;;;;;10.95;6.90;;;;;;;;;;5098162;28;20073;-74
2022/05/25 08:08:29;;;;;;;9.20;6.05;;;;;;;;;;5097514;28;20075;-74
2022/05/25 08:10:57;;;;;;;10.60;5.68;;;;;;;;;;5107733;28;20044;-73
2022/05/25 08:13:24;;;;;;;13.43;6.85;;;;;;;;;;5098947;28;20075;-73
2022/05/25 08:15:50;;;;;;;8.55;5.45;;;;;;;;;;5099310;28;20506;-74
2022/05/25 08:18:17;;;;;;;10.35;5.28;;;;;;;;;;5106764;28;20555;-73
2022/05/25 08:20:44;;;;;;;8.70;4.82;;;;;;;;;;5093994;28;20431;-74
2022/05/25 08:23:11;;;;;;;8.57;4.90;;;;;;;;;;5103672;28;20032;-73
2022/05/25 08:25:38;;;;;;;8.57;5.07;;;;;;;;;;5101959;28;20487;-74
2022/05/25 08:28:04;;;;;;;8.05;4.53;;;;;;;;;;5094984;28;20048;-74
2022/05/25 08:30:32;;;;;;;8.82;4.60;;;;;;;;;;5107142;28;20401;-74
2022/05/25 08:32:58;;;;;;;9.52;4.45;;;;;;;;;;5080866;28;20092;-74
2022/05/25 08:35:27;;;;;;;7.47;4.25;;;;;;;;;;5099295;28;20040;-74
2022/05/25 08:37:53;;;;;;;10.10;4.18;;;;;;;;;;5088477;28;20475;-74
2022/05/25 08:40:20;;;;;;;6.72;3.70;;;;;;;;;;5093707;28;20039;-74
2022/05/25 08:43:00;;;;;;;12.05;3.92;;;;;;;;;;5103424;28;20036;-74
2022/05/25 08:45:34;;;;;;;5.18;2.92;;;;;;;;;;5103051;28;20040;-74
2022/05/25 08:48:01;;;;;;;6.35;3.03;;;;;;;;;;5093631;28;20491;-74
2022/05/25 08:50:29;;;;;;;5.88;3.15;;;;;;;;;;5087978;28;20039;-74
2022/05/25 08:52:57;;;;;;;7.38;3.33;;;;;;;;;;5099715;28;20035;-74
2022/05/25 08:55:42;;;;;;;8.15;3.13;;;;;;;;;;5096561;28;20032;-74
2022/05/25 08:58:08;;;;;;;;;;;;;;;;;;5106748;28;20127;-75
2022/05/25 09:00:35;;;;;;;8.68;3.00;;;;;;;;;;5080695;28;20369;-75
2022/05/25 09:03:12;;;;;;;6.70;3.38;;;;;;;;;;5098763;28;20040;-74
2022/05/25 09:05:41;;;;;;;8.00;3.05;;;;;;;;;;5106216;28;20096;-74
2022/05/25 09:08:13;;;;;;;6.78;3.55;;;;;;;;;;5075529;28;20047;-74
2022/05/25 09:10:43;;;;;;;7.03;3.17;;;;;;;;;;5099728;28;20511;-75
2022/05/25 09:13:15;;;;;;;7.30;4.35;;;;;;;;;;5096171;28;20124;-73
2022/05/25 09:18:33;;;;;;;6.82;4.32;;;;;;;;;;5099104;28;20097;-74
2022/05/25 09:21:01;;;;;;;7.80;4.13;;;;;;;;;;5095768;28;20048;-74
2022/05/25 09:23:28;;;;;;;5.90;3.55;;;;;;;;;;5105987;28;20106;-74
2022/05/25 09:25:55;;;;;;;7.03;3.65;;;;;;;;;;5077836;28;20047;-74
2022/05/25 09:28:23;;;;;;;8.30;4.22;;;;;;;;;;5099585;28;20123;-74
2022/05/25 09:30:56;;;;;;;8.82;4.30;;;;;;;;;;5103055;28;20036;-74
2022/05/25 09:33:41;;;;;;;6.10;3.78;;;;;;;;;;5093089;28;20044;-75
2022/05/25 09:36:20;;;;;;;8.80;4.30;;;;;;;;;;5083422;28;20059;-75
2022/05/25 09:38:53;;;;;;;6.00;3.40;;;;;;;;;;5104005;28;20051;-74
2022/05/25 09:41:20;;;;;;;6.55;3.47;;;;;;;;;;5092835;28;20050;-75
2022/05/25 09:43:47;;;;;;;6.25;3.13;;;;;;;;;;5102333;28;20054;-75
2022/05/25 09:46:22;;;;;;;11.80;3.30;;;;;;;;;;5100379;28;20376;-73
2022/05/25 09:48:50;;;;;;;15.43;3.83;;;;;;;;;;5092907;28;20043;-74
2022/05/25 09:51:31;;;;;;;5.95;3.00;;;;;;;;;;5076589;28;20055;-74
2022/05/25 09:54:06;;;;;;;6.25;2.95;;;;;;;;;;5098547;28;20411;-74
2022/05/25 09:56:32;;;;;;;;;;;;;;;;;;5087627;28;20091;-75
2022/05/25 09:59:02;;;;;;;9.02;3.50;;;;;;;;;;5092383;28;19916;-75
2022/05/25 10:01:31;;;;;;;6.60;3.17;;;;;;;;;;5101786;28;20071;-75
2022/05/25 10:03:59;;;;;;;7.22;2.90;;;;;;;;;;5100302;28;20294;-75
2022/05/25 10:06:32;;;;;;;5.60;2.83;;;;;;;;;;5076177;28;20043;-74
2022/05/25 10:09:17;;;;;;;6.53;2.90;;;;;;;;;;5076637;28;20547;-75
2022/05/25 10:11:51;;;;;;;6.10;2.70;;;;;;;;;;5098140;28;20307;-75
2022/05/25 10:14:17;;;;;;;6.50;3.47;;;;;;;;;;5104881;28;20042;-75
2022/05/25 10:16:44;;;;;;;7.25;3.58;;;;;;;;;;5092338;28;20048;-75
2022/05/25 10:19:12;;;;;;;6.40;3.55;;;;;;;;;;5101538;28;20285;-74
2022/05/25 10:21:40;;;;;;;9.88;3.90;;;;;;;;;;5092636;28;20177;-75
2022/05/25 10:24:26;;;;;;;4.97;2.60;;;;;;;;;;5086628;28;20046;-74
2022/05/25 10:26:55;;;;;;;7.18;2.80;;;;;;;;;;5073420;28;20093;-75
2022/05/25 10:36:45;;;;;;;6.93;2.63;;;;;;;;;;5098293;28;20456;-75
2022/05/25 10:38:27;;;;;;;6.63;2.92;;;;;;;;;;5103359;28;20463;-75
2022/05/25 10:40:54;;;;;;;4.90;3.03;;;;;;;;;;5095860;28;20448;-74
2022/05/25 10:43:28;;;;;;;6.18;3.20;;;;;;;;;;5096416;28;20399;-75
2022/05/25 10:45:55;;;;;;;6.05;3.50;;;;;;;;;;5104360;28;20071;-74
2022/05/25 10:48:26;;;;;;;7.22;3.13;;;;;;;;;;5092311;28;20071;-74
2022/05/25 10:50:58;;;;;;;6.95;2.90;;;;;;;;;;5099224;28;20040;-74
2022/05/25 10:53:24;;;;;;;5.13;3.00;;;;;;;;;;5084888;28;20035;-75
2022/05/25 10:56:09;;;;;;;9.15;3.53;;;;;;;;;;5091401;28;20040;-74
2022/05/25 10:58:45;;;;;;;9.95;3.10;;;;;;;;;;5100413;28;20067;-74
2022/05/25 11:01:26;;;;;;;5.43;3.10;;;;;;;;;;5100880;28;20491;-74
2022/05/25 11:04:06;;;;;;;8.75;3.25;;;;;;;;;;5090936;28;20036;-74
2022/05/25 11:06:52;;;;;;;5.22;3.15;;;;;;;;;;5099518;28;20499;-74
2022/05/25 11:09:37;;;;;;;5.47;2.90;;;;;;;;;;5102786;28;20046;-73
2022/05/25 11:12:03;;;;;;;;;;;;;;;;;;5072632;28;20070;-75
2022/05/25 11:14:48;;;;;;;7.05;2.95;;;;;;;;;;5096875;28;19955;-74
2022/05/25 11:17:20;;;;;;;7.10;3.10;;;;;;;;;;5091934;28;20040;-75
2022/05/25 11:20:05;;;;;;;6.25;3.08;;;;;;;;;;5075560;28;20093;-74
2022/05/25 11:22:47;;;;;;;7.55;3.40;;;;;;;;;;5097043;28;20072;-74
2022/05/25 11:25:17;;;;;;;5.30;3.45;;;;;;;;;;5086671;28;20078;-74
2022/05/25 11:28:02;;;;;;;5.53;3.13;;;;;;;;;;5075090;28;20517;-74
2022/05/25 11:30:32;;;;;;;11.80;3.50;;;;;;;;;;5096042;28;20144;-74
2022/05/25 11:33:17;;;;;;;8.88;3.13;;;;;;;;;;5103279;28;20075;-74
2022/05/25 11:36:02;;;;;;;5.38;2.83;;;;;;;;;;5073188;28;20558;-74
2022/05/25 11:38:57;;;;;;;8.23;3.97;;;;;;;;;;5092271;28;20051;-74
2022/05/25 11:41:23;;;;;;;5.63;3.55;;;;;;;;;;5084445;28;20067;-73
2022/05/25 11:44:05;;;;;;;6.43;4.30;;;;;;;;;;5095024;28;20036;-74
2022/05/25 11:46:48;;;;;;;7.30;4.53;;;;;;;;;;5093261;28;20044;-74
2022/05/25 11:49:27;;;;;;;8.95;4.47;;;;;;;;;;5074706;28;20035;-74
2022/05/25 11:52:03;;;;;;;7.22;5.05;;;;;;;;;;5081207;28;20387;-74
2022/05/25 11:54:48;;;;;;;8.23;6.07;;;;;;;;;;5102098;28;20035;-74
2022/05/25 11:57:25;;;;;;;8.38;5.72;;;;;;;;;;5071648;28;20055;-74
2022/05/25 12:00:04;;;;;;;9.65;5.97;;;;;;;;;;5097624;28;20043;-74
2022/05/25 12:02:49;;;;;;;11.88;6.63;;;;;;;;;;5091310;28;20377;-73
2022/05/25 12:05:15;;;;;;;;;;;;;;;;;;5079307;28;20040;-74
2022/05/25 12:07:49;;;;;;;12.20;7.90;;;;;;;;;;5097172;28;19933;-75
2022/05/25 12:10:22;;;;;;;9.48;6.65;;;;;;;;;;5102312;28;20043;-75
2022/05/25 12:12:51;;;;;;;7.53;4.85;;;;;;;;;;5090950;28;20520;-74
2022/05/25 12:15:32;;;;;;;9.65;6.05;;;;;;;;;;5083023;28;20132;-73
2022/05/25 12:18:02;;;;;;;8.68;5.68;;;;;;;;;;5104662;28;20082;-75
2022/05/25 12:20:37;;;;;;;7.82;6.00;;;;;;;;;;5094559;28;20036;-74
2022/05/25 12:23:05;;;;;;;9.18;5.70;;;;;;;;;;5104160;28;20046;-75
2022/05/25 12:25:31;;;;;;;8.00;5.80;;;;;;;;;;5101849;28;20430;-75
2022/05/25 12:27:59;;;;;;;8.18;6.28;;;;;;;;;;5095687;28;20044;-74
2022/05/25 12:30:25;;;;;;;7.88;6.25;;;;;;;;;;5110370;28;20032;-75
2022/05/25 12:32:52;;;;;;;9.32;6.25;;;;;;;;;;5104288;28;20455;-75
2022/05/25 12:35:18;;;;;;;10.38;6.70;;;;;;;;;;5100503;28;20059;-75
2022/05/25 12:37:46;;;;;;;8.52;6.47;;;;;;;;;;5079010;28;20418;-74
2022/05/25 12:40:27;;;;;;;8.73;5.85;;;;;;;;;;5106492;28;20126;-74
2022/05/25 12:42:53;;;;;;;8.60;6.50;;;;;;;;;;5082584;28;20164;-74
2022/05/25 12:48:30;;;;;;;10.27;6.00;;;;;;;;;;5078749;28;20298;-74
2022/05/25 12:51:08;;;;;;;7.90;4.93;;;;;;;;;;5098568;28;20044;-74
2022/05/25 12:53:37;;;;;;;7.63;4.47;;;;;;;;;;5085259;28;20450;-75
2022/05/25 12:56:06;;;;;;;9.15;5.50;;;;;;;;;;5106265;28;20048;-74
2022/05/25 12:58:51;;;;;;;7.55;4.72;;;;;;;;;;5097440;28;20107;-74
2022/05/25 13:01:26;;;;;;;10.35;4.72;;;;;;;;;;5095925;28;20122;-74
2022/05/25 13:03:56;;;;;;;7.38;4.85;;;;;;;;;;5089187;28;20048;-75
2022/05/25 13:06:28;;;;;;;7.68;4.45;;;;;;;;;;5096897;28;20036;-74
2022/05/25 13:08:58;;;;;;;6.78;4.10;;;;;;;;;;5097828;28;20036;-74
2022/05/25 13:11:41;;;;;;;8.50;4.30;;;;;;;;;;5105990;28;20039;-74
2022/05/25 13:14:16;;;;;;;7.72;3.13;;;;;;;;;;5096183;28;20031;-74
2022/05/25 13:19:15;;;;;;;6.53;2.40;;;;;;;;;;5105140;28;20134;-74
2022/05/25 13:21:42;;;;;;;3.72;1.60;;;;;;;;;;5089051;28;20510;-74
2022/05/25 13:24:20;;;;;;;4.57;1.95;;;;;;;;;;5080324;28;20115;-74
2022/05/25 13:27:06;;;;;;;6.15;1.50;;;;;;;;;;5095965;28;20126;-74
2022/05/25 13:29:51;;;;;;;5.57;1.70;;;;;;;;;;5105647;28;20074;-74
2022/05/25 13:32:36;;;;;;;6.53;1.50;;;;;;;;;;5099570;28;20031;-74
2022/05/25 13:35:11;;;;;;;4.60;1.30;;;;;;;;;;5092926;28;20392;-74
2022/05/25 13:37:38;;;;;;;5.80;1.50;;;;;;;;;;5086847;28;20139;-74
2022/05/25 13:40:08;;;;;;;5.20;1.13;;;;;;;;;;5098693;28;20524;-74
2022/05/25 13:42:35;;;;;;;6.93;1.55;;;;;;;;;;5095277;28;20415;-74
2022/05/25 13:45:05;;;;;;;4.80;1.10;;;;;;;;;;5105397;28;20047;-74
2022/05/25 13:47:31;;;;;;;4.63;1.50;;;;;;;;;;5095110;28;20075;-74
2022/05/25 13:49:59;;;;;;;6.68;1.13;;;;;;;;;;5099614;28;20035;-73
2022/05/25 13:52:27;;;;;;;4.82;0.90;;;;;;;;;;5103033;28;20082;-74
2022/05/25 13:54:55;;;;;;;5.25;1.30;;;;;;;;;;5076025;28;20476;-74
2022/05/25 13:57:34;;;;;;;3.83;1.20;;;;;;;;;;5109463;28;20051;-74
2022/05/25 14:00:02;;;;;;;5.85;1.20;;;;;;;;;;5080298;28;20527;-74
2022/05/25 14:02:30;;;;;;;3.95;0.93;;;;;;;;;;5104912;28;20519;-73
2022/05/25 14:05:04;;;;;;;4.03;1.13;;;;;;;;;;5076168;28;20039;-74
2022/05/25 14:07:37;;;;;;;8.55;1.30;;;;;;;;;;5102516;28;20495;-74
2022/05/25 14:12:55;;;;;;;4.25;1.55;;;;;;;;;;5077937;28;20491;-74
2022/05/25 14:15:24;;;;;;;5.43;1.40;;;;;;;;;;5099774;28;20058;-74
2022/05/25 14:17:58;;;;;;;5.25;1.20;;;;;;;;;;5101184;28;20051;-74
2022/05/25 14:20:25;;;;;;;4.07;1.08;;;;;;;;;;5092377;28;20046;-73
2022/05/25 14:22:52;;;;;;;5.22;1.40;;;;;;;;;;5102767;28;20097;-74
2022/05/25 14:25:25;;;;;;;4.72;1.13;;;;;;;;;;5081159;28;20046;-74
2022/05/25 14:27:52;;;;;;;4.70;1.20;;;;;;;;;;5093664;28;20051;-74
2022/05/25 14:30:20;;;;;;;7.47;1.60;;;;;;;;;;5104801;28;20574;-75
2022/05/25 14:32:57;;;;;;;4.30;1.23;;;;;;;;;;5094218;28;20050;-74
2022/05/25 14:35:23;;;;;;;5.30;1.35;;;;;;;;;;5096385;28;20036;-75
2022/05/25 14:37:50;;;;;;;4.78;1.10;;;;;;;;;;5086683;28;20098;-74
2022/05/25 14:40:18;;;;;;;5.28;1.05;;;;;;;;;;5091064;28;20048;-74
2022/05/25 14:42:55;;;;;;;2.92;1.10;;;;;;;;;;5083948;28;20136;-74
2022/05/25 14:45:22;;;;;;;5.53;1.10;;;;;;;;;;5088365;28;20040;-75
2022/05/25 14:47:52;;;;;;;5.63;1.30;;;;;;;;;;5104139;28;20402;-75
2022/05/25 14:50:23;;;;;;;6.85;1.40;;;;;;;;;;5092988;28;20032;-74
2022/05/25 14:53:11;;;;;;;5.75;1.20;;;;;;;;;;5098620;28;20677;-74
2022/05/25 14:55:38;;;;;;;5.03;1.10;;;;;;;;;;5104115;28;20043;-75
2022/05/25 14:58:06;;;;;;;5.28;1.00;;;;;;;;;;5091623;28;20039;-75
2022/05/25 15:00:36;;;;;;;3.38;1.05;;;;;;;;;;5099908;28;20047;-74
2022/05/25 15:03:03;;;;;;;4.45;1.10;;;;;;;;;;5100225;28;20039;-75
2022/05/25 15:05:41;;;;;;;3.30;1.00;;;;;;;;;;5074568;28;20040;-74
2022/05/25 15:08:19;;;;;;;8.15;1.40;;;;;;;;;;5101856;28;20040;-74
2022/05/25 15:10:45;;;;;;;3.50;1.10;;;;;;;;;;5099252;28;20036;-74
2022/05/25 15:13:23;;;;;;;7.63;1.45;;;;;;;;;;5092288;28;20048;-74
2022/05/25 15:18:37;;;;;;;4.88;1.10;;;;;;;;;;5097028;28;20500;-74
2022/05/25 15:21:12;;;;;;;6.60;1.20;;;;;;;;;;5100133;28;20039;-74
2022/05/25 15:23:44;;;;;;;5.70;1.15;;;;;;;;;;5075719;28;20055;-75
2022/05/25 15:26:16;;;;;;;4.85;1.35;;;;;;;;;;5099297;28;20406;-74